Autumn — V7QA6 — position and weather

sailwx.info

Track history (hours):
 
Tides and Currents Weather Stations Pressure Air Temp Water Temp Dewpoint Dewpoint Depression Visibility Wind Speed Wind Dir Waves Ship Positions

Autumn

Last reported at 2017-Feb-21 07:31 UTC. Time now 2017-Feb-21 07:55 UTC.
Position N 51°45' E 003°19'.

Length 129 m; draft 5.9 m.

Type: Tanker. MMSI: 538003323.

Date/timePositionNaut miles runAvg speedWind from/ knotsBaromVisibWave heightAir tempDewpointWater temp
2017-Feb-21 07:31N 51°45' E 003°19'0 0.0
2017-Feb-21 06:22N 51°45' E 003°19'0 0.0
2017-Feb-21 04:25N 51°45' E 003°19'0 0.0
2017-Feb-21 03:29N 51°45' E 003°19'0 0.0
2017-Feb-21 02:32N 51°45' E 003°19'0 0.0
2017-Feb-21 01:31N 51°45' E 003°19'0 0.0
2017-Feb-21 00:31N 51°45' E 003°19'0 0.0
2017-Feb-20 23:22N 51°45' E 003°19'0 0.0
2017-Feb-20 22:32N 51°45' E 003°19'0 0.0
2017-Feb-20 21:32N 51°45' E 003°19'0 0.0
2017-Feb-20 20:28N 51°45' E 003°19'0 0.0
2017-Feb-20 19:26N 51°45' E 003°19'0 0.0
2017-Feb-20 18:19N 51°45' E 003°19'0 0.0
2017-Feb-20 16:31N 51°45' E 003°19'0 0.0
2017-Feb-20 15:31N 51°45' E 003°19'0 0.0
2017-Feb-20 14:31N 51°45' E 003°19'0 0.0
2017-Feb-20 13:31N 51°45' E 003°19'0 0.0
2017-Feb-20 12:28N 51°45' E 003°19'0 0.0
2017-Feb-20 11:32N 51°45' E 003°19'0 0.0
2017-Feb-20 10:31N 51°45' E 003°19'0 0.0
2017-Feb-20 08:28N 51°45' E 003°19'0 0.0
2017-Feb-20 07:10N 51°45' E 003°19'0 0.0
2017-Feb-20 06:10N 51°45' E 003°19'0 0.0
2017-Feb-20 05:17N 51°45' E 003°19'0 0.0
2017-Feb-20 03:31N 51°45' E 003°19'0 0.0
2017-Feb-20 01:32N 51°45' E 003°19'0 0.0
2017-Feb-20 00:20N 51°45' E 003°19'0 0.0
2017-Feb-19 22:19N 51°45' E 003°19'0 0.0
2017-Feb-19 21:22N 51°45' E 003°19'0 0.0
2017-Feb-19 20:25N 51°45' E 003°19'0 0.0
2017-Feb-19 19:25N 51°45' E 003°19'0 0.5
2017-Feb-19 18:33N 51°45' E 003°19'1110.5
2017-Feb-19 17:33N 51°35' E 003°24'1110.9
2017-Feb-19 16:33N 51°26' E 003°34'9 9.3
2017-Feb-19 15:33N 51°22' E 003°47'10 9.8
2017-Feb-19 14:33N 51°26' E 004°01'9 9.3
2017-Feb-19 13:33N 51°21' E 004°14'3 2.7
2017-Feb-19 12:33N 51°20' E 004°18'3 0.2
2017-Feb-18 19:33N 51°18' E 004°20'4 3.8
2017-Feb-18 18:33N 51°21' E 004°17'2 2.5
2017-Feb-18 17:33N 51°22' E 004°13'10 9.7
2017-Feb-18 16:33N 51°26' E 003°60'1110.7
2017-Feb-18 15:33N 51°23' E 003°43'1110.8
2017-Feb-18 14:34N 51°25' E 003°26'1211.6
2017-Feb-18 13:34N 51°24' E 003°08'1010.2
2017-Feb-18 12:34N 51°22' E 002°52'1010.3
2017-Feb-18 11:33N 51°22' E 002°35'1111.1
2017-Feb-18 10:34N 51°19' E 002°18'1212.1
2017-Feb-18 09:34N 51°13' E 002°01'1212.4
2017-Feb-18 08:34N 51°05' E 001°46'1010.3
2017-Feb-18 07:33N 51°03' E 002°02'1212.0
2017-Feb-18 06:34N 51°04' E 002°21'2 1.7
2017-Feb-18 05:33N 51°03' E 002°18'2 1.7
2017-Feb-18 04:25N 51°02' E 002°16'0 0.0
2017-Feb-18 02:31N 51°02' E 002°16'0 0.0
2017-Feb-18 01:25N 51°02' E 002°16'0 0.0
2017-Feb-18 00:16N 51°02' E 002°16'0 0.0
2017-Feb-17 23:28N 51°02' E 002°16'0 0.0
2017-Feb-17 22:31N 51°02' E 002°16'0 0.0
2017-Feb-17 21:31N 51°02' E 002°16'0 0.0
2017-Feb-17 20:28N 51°02' E 002°16'0 0.0
2017-Feb-17 19:31N 51°02' E 002°16'0 0.0
2017-Feb-17 18:28N 51°02' E 002°16'0 0.0
2017-Feb-17 17:25N 51°02' E 002°16'0 0.0
2017-Feb-17 16:31N 51°02' E 002°16'0 0.0
2017-Feb-17 15:28N 51°02' E 002°16'0 0.0
2017-Feb-17 14:25N 51°02' E 002°16'0 0.0
2017-Feb-17 13:31N 51°02' E 002°16'0 0.0
2017-Feb-17 12:31N 51°02' E 002°16'0 0.0
2017-Feb-17 11:31N 51°02' E 002°16'0 0.0
2017-Feb-17 10:31N 51°02' E 002°16'0 0.0
2017-Feb-17 08:31N 51°02' E 002°16'0 0.0
2017-Feb-17 07:19N 51°02' E 002°16'0 0.0
2017-Feb-17 06:25N 51°02' E 002°16'0 0.0
2017-Feb-17 05:31N 51°02' E 002°16'0 0.0
2017-Feb-17 04:31N 51°02' E 002°16'0 0.0
2017-Feb-17 03:31N 51°02' E 002°16'0 0.0
2017-Feb-17 02:28N 51°02' E 002°16'0 0.0
2017-Feb-17 01:28N 51°02' E 002°16'0 0.0
2017-Feb-17 00:31N 51°02' E 002°16'0 0.0
2017-Feb-16 23:31N 51°02' E 002°16'0 0.0
2017-Feb-16 22:04N 51°02' E 002°16'0 0.0
2017-Feb-16 21:28N 51°02' E 002°16'0 0.0
2017-Feb-16 20:28N 51°02' E 002°16'0 0.0
2017-Feb-16 19:22N 51°02' E 002°16'0 0.0
2017-Feb-16 18:31N 51°02' E 002°16'0 0.0
2017-Feb-16 17:31N 51°02' E 002°16'0 0.0
2017-Feb-16 16:28N 51°02' E 002°16'1 0.9
2017-Feb-16 15:33N 51°03' E 002°17'1 1.5
2017-Feb-16 14:34N 51°04' E 002°18'1514.8
2017-Feb-16 13:34N 51°03' E 001°55'3 2.6
2017-Feb-16 12:31N 51°04' E 001°52'0 0.1
2017-Feb-16 11:31N 51°04' E 001°51'0 0.0
2017-Feb-16 10:31N 51°04' E 001°51'0 0.0
2017-Feb-16 09:31N 51°04' E 001°51'0 0.1
2017-Feb-16 08:28N 51°05' E 001°51'0 0.1
2017-Feb-16 07:34N 51°05' E 001°52'0 0.0
2017-Feb-16 06:31N 51°05' E 001°52'0 0.0
2017-Feb-16 05:31N 51°05' E 001°52'0 0.0
2017-Feb-16 04:31N 51°05' E 001°52'0 0.0
2017-Feb-16 03:31N 51°05' E 001°52'0 0.0
2017-Feb-16 02:31N 51°05' E 001°52'0 0.0
2017-Feb-16 01:28N 51°05' E 001°52'0 0.1
2017-Feb-16 00:34N 51°05' E 001°51'0 0.1
2017-Feb-15 23:31N 51°04' E 001°51'0 0.0
2017-Feb-15 22:31N 51°04' E 001°51'0 0.0
2017-Feb-15 21:34N 51°04' E 001°51'0 0.0
2017-Feb-15 20:31N 51°04' E 001°51'0 0.2
2017-Feb-15 19:34N 51°05' E 001°52'0 0.0
2017-Feb-15 18:34N 51°05' E 001°52'0 0.0
2017-Feb-15 17:31N 51°05' E 001°52'0 0.0
2017-Feb-15 16:34N 51°05' E 001°52'0 0.0
2017-Feb-15 15:34N 51°05' E 001°52'0 0.0
2017-Feb-15 14:28N 51°05' E 001°52'0 0.0
2017-Feb-15 13:34N 51°05' E 001°52'0 0.0
2017-Feb-15 12:34N 51°05' E 001°51'0 0.2
2017-Feb-15 11:34N 51°04' E 001°51'0 0.0
2017-Feb-15 10:34N 51°04' E 001°51'0 0.0
2017-Feb-15 09:34N 51°04' E 001°51'0 0.0
2017-Feb-15 08:34N 51°04' E 001°51'0 0.0
2017-Feb-15 07:34N 51°04' E 001°51'0 0.0
2017-Feb-15 06:31N 51°05' E 001°51'0 0.1
2017-Feb-15 05:34N 51°05' E 001°51'0 0.0
2017-Feb-15 04:33N 51°05' E 001°51'0 0.0
2017-Feb-15 03:33N 51°05' E 001°52'0 0.0
2017-Feb-15 02:34N 51°05' E 001°51'0 0.0
2017-Feb-15 01:33N 51°05' E 001°51'0 0.1
2017-Feb-15 00:33N 51°05' E 001°51'0 0.2
2017-Feb-14 23:34N 51°04' E 001°51'0 0.0
2017-Feb-14 22:33N 51°04' E 001°51'0 0.0
2017-Feb-14 21:33N 51°04' E 001°51'8 8.3
2017-Feb-14 20:33N 51°03' E 002°04'1010.3
2017-Feb-14 19:33N 51°03' E 002°20'1 0.5
2017-Feb-14 18:03N 51°03' E 002°21'0 0.0
2017-Feb-14 17:33N 51°03' E 002°21'0 0.0
2017-Feb-14 16:27N 51°03' E 002°21'0 0.0
2017-Feb-14 15:15N 51°03' E 002°21'0 0.0
2017-Feb-14 14:24N 51°03' E 002°21'0 0.0
2017-Feb-14 12:33N 51°03' E 002°21'0 0.0
2017-Feb-14 11:33N 51°03' E 002°21'0 0.0
2017-Feb-14 10:33N 51°03' E 002°21'0 0.0
2017-Feb-14 09:30N 51°03' E 002°21'0 0.0
2017-Feb-14 08:12N 51°03' E 002°21'0 0.0
2017-Feb-14 07:30N 51°03' E 002°21'0 0.0
2017-Feb-14 06:33N 51°03' E 002°21'0 0.0
2017-Feb-14 05:30N 51°03' E 002°21'0 0.0
2017-Feb-14 04:33N 51°03' E 002°21'0 0.0
2017-Feb-14 03:30N 51°03' E 002°21'0 0.0
2017-Feb-14 02:30N 51°03' E 002°21'0 0.0
2017-Feb-14 01:33N 51°03' E 002°21'0 0.0
2017-Feb-14 00:33N 51°03' E 002°21'0 0.0
2017-Feb-13 23:27N 51°03' E 002°21'0 0.0
2017-Feb-13 22:33N 51°03' E 002°21'0 0.0
2017-Feb-13 20:30N 51°03' E 002°21'0 0.0
2017-Feb-13 17:24N 51°03' E 002°21'0 0.0
2017-Feb-13 16:24N 51°03' E 002°21'0 0.0
2017-Feb-13 15:21N 51°03' E 002°21'0 0.0
2017-Feb-13 14:33N 51°03' E 002°21'0 0.0
2017-Feb-13 12:24N 51°03' E 002°21'0 0.0
2017-Feb-13 11:33N 51°03' E 002°21'0 0.0
2017-Feb-13 10:15N 51°03' E 002°21'0 0.0
2017-Feb-13 09:21N 51°03' E 002°21'0 0.0
2017-Feb-13 08:12N 51°03' E 002°21'0 0.0
2017-Feb-13 07:30N 51°03' E 002°21'0 0.0
2017-Feb-13 06:33N 51°03' E 002°21'0 0.0
2017-Feb-13 05:30N 51°03' E 002°21'0 0.0
2017-Feb-13 04:09N 51°03' E 002°21'0 0.0
2017-Feb-13 03:33N 51°03' E 002°21'0 0.0
2017-Feb-13 02:27N 51°03' E 002°21'0 0.0
2017-Feb-13 01:27N 51°03' E 002°21'0 0.0
2017-Feb-13 00:33N 51°03' E 002°21'0 0.0
2017-Feb-12 23:33N 51°03' E 002°21'0 0.0
2017-Feb-12 21:33N 51°03' E 002°21'0 0.0
2017-Feb-12 13:33N 51°03' E 002°21'1 0.5
2017-Feb-12 12:34N 51°03' E 002°21'5 4.7
2017-Feb-12 11:34N 51°03' E 002°13'1312.6
2017-Feb-12 10:34N 51°03' E 001°53'5 5.2
2017-Feb-12 09:33N 51°03' E 001°45'9 9.2
2017-Feb-12 08:33N 51°12' E 001°44'1313.2
2017-Feb-12 07:34N 51°23' E 001°55'1312.7
2017-Feb-12 06:33N 51°33' E 002°08'8710.9
2017-Feb-11 22:33N 52°31' E 003°54'1212.5
2017-Feb-11 21:33N 52°31' E 004°15'1111.4
2017-Feb-11 20:33N 52°28' E 004°33'4 3.9
2017-Feb-11 19:34N 52°28' E 004°39'5 5.2
2017-Feb-11 18:31N 52°25' E 004°46'0 0.0
2017-Feb-11 17:34N 52°25' E 004°46'0 0.0
2017-Feb-11 16:33N 52°25' E 004°46'0 0.0
2017-Feb-11 15:33N 52°25' E 004°46'0 0.0
2017-Feb-11 14:33N 52°25' E 004°46'0 0.0
2017-Feb-11 13:33N 52°25' E 004°46'0 0.0
2017-Feb-11 12:33N 52°25' E 004°46'0 0.0
2017-Feb-11 11:33N 52°25' E 004°46'0 0.0
2017-Feb-11 10:33N 52°25' E 004°46'0 0.0
2017-Feb-11 09:33N 52°25' E 004°46'0 0.0
2017-Feb-11 08:33N 52°25' E 004°46'0 0.0
2017-Feb-11 07:33N 52°25' E 004°46'  
Track history (hours):
 
Tides and Currents Weather Stations Pressure Air Temp Water Temp Dewpoint Dewpoint Depression Visibility Wind Speed Wind Dir Waves Ship Positions

Autumn

Last reported at 2017-Feb-21 07:31 UTC. Time now 2017-Feb-21 07:55 UTC.
Position N 51°45' E 003°19'.

Length 129 m; draft 5.9 m.

Type: Tanker. MMSI: 538003323.

Date/timePositionNaut miles runAvg speedWind from/ knotsBaromVisibWave heightAir tempDewpointWater temp
2017-Feb-21 07:31N 51°45' E 003°19'0 0.0
2017-Feb-21 06:22N 51°45' E 003°19'0 0.0
2017-Feb-21 04:25N 51°45' E 003°19'0 0.0
2017-Feb-21 03:29N 51°45' E 003°19'0 0.0
2017-Feb-21 02:32N 51°45' E 003°19'0 0.0
2017-Feb-21 01:31N 51°45' E 003°19'0 0.0
2017-Feb-21 00:31N 51°45' E 003°19'0 0.0
2017-Feb-20 23:22N 51°45' E 003°19'0 0.0
2017-Feb-20 22:32N 51°45' E 003°19'0 0.0
2017-Feb-20 21:32N 51°45' E 003°19'0 0.0
2017-Feb-20 20:28N 51°45' E 003°19'0 0.0
2017-Feb-20 19:26N 51°45' E 003°19'0 0.0
2017-Feb-20 18:19N 51°45' E 003°19'0 0.0
2017-Feb-20 16:31N 51°45' E 003°19'0 0.0
2017-Feb-20 15:31N 51°45' E 003°19'0 0.0
2017-Feb-20 14:31N 51°45' E 003°19'0 0.0
2017-Feb-20 13:31N 51°45' E 003°19'0 0.0
2017-Feb-20 12:28N 51°45' E 003°19'0 0.0
2017-Feb-20 11:32N 51°45' E 003°19'0 0.0
2017-Feb-20 10:31N 51°45' E 003°19'0 0.0
2017-Feb-20 08:28N 51°45' E 003°19'0 0.0
2017-Feb-20 07:10N 51°45' E 003°19'0 0.0
2017-Feb-20 06:10N 51°45' E 003°19'0 0.0
2017-Feb-20 05:17N 51°45' E 003°19'0 0.0
2017-Feb-20 03:31N 51°45' E 003°19'0 0.0
2017-Feb-20 01:32N 51°45' E 003°19'0 0.0
2017-Feb-20 00:20N 51°45' E 003°19'0 0.0
2017-Feb-19 22:19N 51°45' E 003°19'0 0.0
2017-Feb-19 21:22N 51°45' E 003°19'0 0.0
2017-Feb-19 20:25N 51°45' E 003°19'0 0.0
2017-Feb-19 19:25N 51°45' E 003°19'0 0.5
2017-Feb-19 18:33N 51°45' E 003°19'1110.5
2017-Feb-19 17:33N 51°35' E 003°24'1110.9
2017-Feb-19 16:33N 51°26' E 003°34'9 9.3
2017-Feb-19 15:33N 51°22' E 003°47'10 9.8
2017-Feb-19 14:33N 51°26' E 004°01'9 9.3
2017-Feb-19 13:33N 51°21' E 004°14'3 2.7
2017-Feb-19 12:33N 51°20' E 004°18'3 0.2
2017-Feb-18 19:33N 51°18' E 004°20'4 3.8
2017-Feb-18 18:33N 51°21' E 004°17'2 2.5
2017-Feb-18 17:33N 51°22' E 004°13'10 9.7
2017-Feb-18 16:33N 51°26' E 003°60'1110.7
2017-Feb-18 15:33N 51°23' E 003°43'1110.8
2017-Feb-18 14:34N 51°25' E 003°26'1211.6
2017-Feb-18 13:34N 51°24' E 003°08'1010.2
2017-Feb-18 12:34N 51°22' E 002°52'1010.3
2017-Feb-18 11:33N 51°22' E 002°35'1111.1
2017-Feb-18 10:34N 51°19' E 002°18'1212.1
2017-Feb-18 09:34N 51°13' E 002°01'1212.4
2017-Feb-18 08:34N 51°05' E 001°46'1010.3
2017-Feb-18 07:33N 51°03' E 002°02'1212.0
2017-Feb-18 06:34N 51°04' E 002°21'2 1.7
2017-Feb-18 05:33N 51°03' E 002°18'2 1.7
2017-Feb-18 04:25N 51°02' E 002°16'0 0.0
2017-Feb-18 02:31N 51°02' E 002°16'0 0.0
2017-Feb-18 01:25N 51°02' E 002°16'0 0.0
2017-Feb-18 00:16N 51°02' E 002°16'0 0.0
2017-Feb-17 23:28N 51°02' E 002°16'0 0.0
2017-Feb-17 22:31N 51°02' E 002°16'0 0.0
2017-Feb-17 21:31N 51°02' E 002°16'0 0.0
2017-Feb-17 20:28N 51°02' E 002°16'0 0.0
2017-Feb-17 19:31N 51°02' E 002°16'0 0.0
2017-Feb-17 18:28N 51°02' E 002°16'0 0.0
2017-Feb-17 17:25N 51°02' E 002°16'0 0.0
2017-Feb-17 16:31N 51°02' E 002°16'0 0.0
2017-Feb-17 15:28N 51°02' E 002°16'0 0.0
2017-Feb-17 14:25N 51°02' E 002°16'0 0.0
2017-Feb-17 13:31N 51°02' E 002°16'0 0.0
2017-Feb-17 12:31N 51°02' E 002°16'0 0.0
2017-Feb-17 11:31N 51°02' E 002°16'0 0.0
2017-Feb-17 10:31N 51°02' E 002°16'0 0.0
2017-Feb-17 08:31N 51°02' E 002°16'0 0.0
2017-Feb-17 07:19N 51°02' E 002°16'0 0.0
2017-Feb-17 06:25N 51°02' E 002°16'0 0.0
2017-Feb-17 05:31N 51°02' E 002°16'0 0.0
2017-Feb-17 04:31N 51°02' E 002°16'0 0.0
2017-Feb-17 03:31N 51°02' E 002°16'0 0.0
2017-Feb-17 02:28N 51°02' E 002°16'0 0.0
2017-Feb-17 01:28N 51°02' E 002°16'0 0.0
2017-Feb-17 00:31N 51°02' E 002°16'0 0.0
2017-Feb-16 23:31N 51°02' E 002°16'0 0.0
2017-Feb-16 22:04N 51°02' E 002°16'0 0.0
2017-Feb-16 21:28N 51°02' E 002°16'0 0.0
2017-Feb-16 20:28N 51°02' E 002°16'0 0.0
2017-Feb-16 19:22N 51°02' E 002°16'0 0.0
2017-Feb-16 18:31N 51°02' E 002°16'0 0.0
2017-Feb-16 17:31N 51°02' E 002°16'0 0.0
2017-Feb-16 16:28N 51°02' E 002°16'1 0.9
2017-Feb-16 15:33N 51°03' E 002°17'1 1.5
2017-Feb-16 14:34N 51°04' E 002°18'1514.8
2017-Feb-16 13:34N 51°03' E 001°55'3 2.6
2017-Feb-16 12:31N 51°04' E 001°52'0 0.1
2017-Feb-16 11:31N 51°04' E 001°51'0 0.0
2017-Feb-16 10:31N 51°04' E 001°51'0 0.0
2017-Feb-16 09:31N 51°04' E 001°51'0 0.1
2017-Feb-16 08:28N 51°05' E 001°51'0 0.1
2017-Feb-16 07:34N 51°05' E 001°52'0 0.0
2017-Feb-16 06:31N 51°05' E 001°52'0 0.0
2017-Feb-16 05:31N 51°05' E 001°52'0 0.0
2017-Feb-16 04:31N 51°05' E 001°52'0 0.0
2017-Feb-16 03:31N 51°05' E 001°52'0 0.0
2017-Feb-16 02:31N 51°05' E 001°52'0 0.0
2017-Feb-16 01:28N 51°05' E 001°52'0 0.1
2017-Feb-16 00:34N 51°05' E 001°51'0 0.1
2017-Feb-15 23:31N 51°04' E 001°51'0 0.0
2017-Feb-15 22:31N 51°04' E 001°51'0 0.0
2017-Feb-15 21:34N 51°04' E 001°51'0 0.0
2017-Feb-15 20:31N 51°04' E 001°51'0 0.2
2017-Feb-15 19:34N 51°05' E 001°52'0 0.0
2017-Feb-15 18:34N 51°05' E 001°52'0 0.0
2017-Feb-15 17:31N 51°05' E 001°52'0 0.0
2017-Feb-15 16:34N 51°05' E 001°52'0 0.0
2017-Feb-15 15:34N 51°05' E 001°52'0 0.0
2017-Feb-15 14:28N 51°05' E 001°52'0 0.0
2017-Feb-15 13:34N 51°05' E 001°52'0 0.0
2017-Feb-15 12:34N 51°05' E 001°51'0 0.2
2017-Feb-15 11:34N 51°04' E 001°51'0 0.0
2017-Feb-15 10:34N 51°04' E 001°51'0 0.0
2017-Feb-15 09:34N 51°04' E 001°51'0 0.0
2017-Feb-15 08:34N 51°04' E 001°51'0 0.0
2017-Feb-15 07:34N 51°04' E 001°51'0 0.0
2017-Feb-15 06:31N 51°05' E 001°51'0 0.1
2017-Feb-15 05:34N 51°05' E 001°51'0 0.0
2017-Feb-15 04:33N 51°05' E 001°51'0 0.0
2017-Feb-15 03:33N 51°05' E 001°52'0 0.0
2017-Feb-15 02:34N 51°05' E 001°51'0 0.0
2017-Feb-15 01:33N 51°05' E 001°51'0 0.1
2017-Feb-15 00:33N 51°05' E 001°51'0 0.2
2017-Feb-14 23:34N 51°04' E 001°51'0 0.0
2017-Feb-14 22:33N 51°04' E 001°51'0 0.0
2017-Feb-14 21:33N 51°04' E 001°51'8 8.3
2017-Feb-14 20:33N 51°03' E 002°04'1010.3
2017-Feb-14 19:33N 51°03' E 002°20'1 0.5
2017-Feb-14 18:03N 51°03' E 002°21'0 0.0
2017-Feb-14 17:33N 51°03' E 002°21'0 0.0
2017-Feb-14 16:27N 51°03' E 002°21'0 0.0
2017-Feb-14 15:15N 51°03' E 002°21'0 0.0
2017-Feb-14 14:24N 51°03' E 002°21'0 0.0
2017-Feb-14 12:33N 51°03' E 002°21'0 0.0
2017-Feb-14 11:33N 51°03' E 002°21'0 0.0
2017-Feb-14 10:33N 51°03' E 002°21'0 0.0
2017-Feb-14 09:30N 51°03' E 002°21'0 0.0
2017-Feb-14 08:12N 51°03' E 002°21'0 0.0
2017-Feb-14 07:30N 51°03' E 002°21'0 0.0
2017-Feb-14 06:33N 51°03' E 002°21'0 0.0
2017-Feb-14 05:30N 51°03' E 002°21'0 0.0
2017-Feb-14 04:33N 51°03' E 002°21'0 0.0
2017-Feb-14 03:30N 51°03' E 002°21'0 0.0
2017-Feb-14 02:30N 51°03' E 002°21'0 0.0
2017-Feb-14 01:33N 51°03' E 002°21'0 0.0
2017-Feb-14 00:33N 51°03' E 002°21'0 0.0
2017-Feb-13 23:27N 51°03' E 002°21'0 0.0
2017-Feb-13 22:33N 51°03' E 002°21'0 0.0
2017-Feb-13 20:30N 51°03' E 002°21'0 0.0
2017-Feb-13 17:24N 51°03' E 002°21'0 0.0
2017-Feb-13 16:24N 51°03' E 002°21'0 0.0
2017-Feb-13 15:21N 51°03' E 002°21'0 0.0
2017-Feb-13 14:33N 51°03' E 002°21'0 0.0
2017-Feb-13 12:24N 51°03' E 002°21'0 0.0
2017-Feb-13 11:33N 51°03' E 002°21'0 0.0
2017-Feb-13 10:15N 51°03' E 002°21'0 0.0
2017-Feb-13 09:21N 51°03' E 002°21'0 0.0
2017-Feb-13 08:12N 51°03' E 002°21'0 0.0
2017-Feb-13 07:30N 51°03' E 002°21'0 0.0
2017-Feb-13 06:33N 51°03' E 002°21'0 0.0
2017-Feb-13 05:30N 51°03' E 002°21'0 0.0
2017-Feb-13 04:09N 51°03' E 002°21'0 0.0
2017-Feb-13 03:33N 51°03' E 002°21'0 0.0
2017-Feb-13 02:27N 51°03' E 002°21'0 0.0
2017-Feb-13 01:27N 51°03' E 002°21'0 0.0
2017-Feb-13 00:33N 51°03' E 002°21'0 0.0
2017-Feb-12 23:33N 51°03' E 002°21'0 0.0
2017-Feb-12 21:33N 51°03' E 002°21'0 0.0
2017-Feb-12 13:33N 51°03' E 002°21'1 0.5
2017-Feb-12 12:34N 51°03' E 002°21'5 4.7
2017-Feb-12 11:34N 51°03' E 002°13'1312.6
2017-Feb-12 10:34N 51°03' E 001°53'5 5.2
2017-Feb-12 09:33N 51°03' E 001°45'9 9.2
2017-Feb-12 08:33N 51°12' E 001°44'1313.2
2017-Feb-12 07:34N 51°23' E 001°55'1312.7
2017-Feb-12 06:33N 51°33' E 002°08'8710.9
2017-Feb-11 22:33N 52°31' E 003°54'1212.5
2017-Feb-11 21:33N 52°31' E 004°15'1111.4
2017-Feb-11 20:33N 52°28' E 004°33'4 3.9
2017-Feb-11 19:34N 52°28' E 004°39'5 5.2
2017-Feb-11 18:31N 52°25' E 004°46'0 0.0
2017-Feb-11 17:34N 52°25' E 004°46'0 0.0
2017-Feb-11 16:33N 52°25' E 004°46'0 0.0
2017-Feb-11 15:33N 52°25' E 004°46'0 0.0
2017-Feb-11 14:33N 52°25' E 004°46'0 0.0
2017-Feb-11 13:33N 52°25' E 004°46'0 0.0
2017-Feb-11 12:33N 52°25' E 004°46'0 0.0
2017-Feb-11 11:33N 52°25' E 004°46'0 0.0
2017-Feb-11 10:33N 52°25' E 004°46'0 0.0
2017-Feb-11 09:33N 52°25' E 004°46'0 0.0
2017-Feb-11 08:33N 52°25' E 004°46'0 0.0
2017-Feb-11 07:33N 52°25' E 004°46'  

Dump ship's entire track history